createdAt,value
2022-10-11T00:01:56.622Z,101710.34
2022-10-11T00:04:23.083Z,101702.63
2022-10-11T00:06:49.523Z,101712.03
2022-10-11T00:09:16.554Z,101709.63
2022-10-11T00:11:43.154Z,101718.31
2022-10-11T00:14:11.977Z,101727.72
2022-10-11T00:16:38.490Z,101729.16
2022-10-11T00:19:04.908Z,101741.41
2022-10-11T00:21:31.463Z,101743.53
2022-10-11T00:23:57.871Z,101757.22
2022-10-11T00:26:24.427Z,101755.75
2022-10-11T00:28:52.042Z,101756.16
2022-10-11T00:31:20.201Z,101751.13
2022-10-11T00:33:46.688Z,101756.09
2022-10-11T00:36:13.362Z,101758.09
2022-10-11T00:38:39.813Z,101763.06
2022-10-11T00:41:06.849Z,101764.34
2022-10-11T00:43:33.728Z,101764.59
2022-10-11T00:46:23.412Z,101775.00
2022-10-11T00:48:56.239Z,101775.25
2022-10-11T00:51:28.819Z,101783.91
2022-10-11T00:53:55.424Z,101787.88
2022-10-11T00:56:26.154Z,101791.84
2022-10-11T00:58:54.236Z,101789.53
2022-10-11T01:01:20.824Z,101787.22
2022-10-11T01:03:47.506Z,101792.88
2022-10-11T01:06:15.304Z,101796.84
2022-10-11T01:08:41.919Z,101797.13
2022-10-11T01:11:12.034Z,101802.81
2022-10-11T01:13:50.678Z,101807.47
2022-10-11T01:16:25.191Z,101807.88
2022-10-11T01:19:07.650Z,101808.16
2022-10-11T01:21:44.015Z,101806.69
2022-10-11T01:24:40.938Z,101802.38
2022-10-11T01:27:34.779Z,101811.50
2022-10-11T01:30:26.696Z,101813.47
2022-10-11T01:33:16.461Z,101820.03
2022-10-11T01:35:54.813Z,101825.66
2022-10-11T01:38:27.315Z,101822.63
2022-10-11T01:40:58.597Z,101817.59
2022-10-11T01:43:26.133Z,101823.41
2022-10-11T01:45:57.524Z,101829.19
2022-10-11T01:48:23.966Z,101826.00
2022-10-11T01:50:51.654Z,101832.66
2022-10-11T01:53:40.047Z,101836.72
2022-10-11T01:56:19.463Z,101832.69
2022-10-11T01:59:00.465Z,101837.72
2022-10-11T02:01:42.895Z,101843.66
2022-10-11T02:04:17.303Z,101841.41
2022-10-11T02:06:51.164Z,101842.91
2022-10-11T02:09:24.757Z,101846.84
2022-10-11T02:11:56.346Z,101851.84
2022-10-11T02:14:26.829Z,101854.06
2022-10-11T02:16:59.383Z,101859.13
2022-10-11T02:19:29.912Z,101856.78
2022-10-11T02:22:02.675Z,101861.56
2022-10-11T02:24:33.365Z,101862.91
2022-10-11T02:27:02.269Z,101867.72
2022-10-11T02:29:32.752Z,101862.66
2022-10-11T02:32:01.625Z,101877.25
2022-10-11T02:34:32.791Z,101877.50
2022-10-11T02:37:04.655Z,101877.00
2022-10-11T02:39:39.800Z,101876.28
2022-10-11T02:42:13.298Z,101881.88
2022-10-11T02:44:41.813Z,101887.53
2022-10-11T02:47:10.521Z,101880.56
2022-10-11T02:49:37.248Z,101884.47
2022-10-11T02:52:05.664Z,101891.06
2022-10-11T02:54:32.367Z,101886.88
2022-10-11T02:56:58.813Z,101897.81
2022-10-11T02:59:25.323Z,101892.63
2022-10-11T03:01:51.828Z,101890.06
2022-10-11T03:04:19.659Z,101903.56
2022-10-11T03:06:46.109Z,101909.06
2022-10-11T03:09:12.538Z,101907.34
2022-10-11T03:11:38.964Z,101911.88
2022-10-11T03:14:05.448Z,101916.44
2022-10-11T03:16:31.883Z,101920.13
2022-10-11T03:18:58.361Z,101921.09
2022-10-11T03:21:26.110Z,101924.75
2022-10-11T03:23:52.553Z,101925.75
2022-10-11T03:26:19.045Z,101927.69
2022-10-11T03:28:45.534Z,101931.38
2022-10-11T03:31:12.048Z,101931.38
2022-10-11T03:33:38.559Z,101932.34
2022-10-11T03:36:06.288Z,101935.03
2022-10-11T03:38:34.431Z,101946.69
2022-10-11T03:41:00.890Z,101951.22
2022-10-11T03:43:27.670Z,101952.09
2022-10-11T03:45:54.145Z,101960.34
2022-10-11T03:48:20.626Z,101952.22
2022-10-11T03:50:48.325Z,101957.63
2022-10-11T03:53:15.036Z,101964.00
2022-10-11T03:55:42.849Z,101967.66
2022-10-11T03:58:09.695Z,101972.34
2022-10-11T04:00:36.270Z,101967.91
2022-10-11T04:03:02.828Z,101971.56
2022-10-11T04:05:29.498Z,101977.06
2022-10-11T04:07:56.068Z,101972.69
2022-10-11T04:10:22.545Z,101983.47
2022-10-11T04:12:50.433Z,101987.03
2022-10-11T04:15:16.996Z,101985.41
2022-10-11T04:17:43.444Z,101987.38
2022-10-11T04:20:10.556Z,102000.88
2022-10-11T04:22:37.106Z,101998.28
2022-10-11T04:25:04.095Z,101992.97
2022-10-11T04:27:30.525Z,102001.22
2022-10-11T04:29:58.353Z,102018.38
2022-10-11T04:32:24.910Z,102009.50
2022-10-11T04:34:51.363Z,102018.59
2022-10-11T04:37:18.222Z,102016.97
2022-10-11T04:43:12.721Z,102022.47
2022-10-11T04:49:08.754Z,102028.88
2022-10-11T04:51:35.201Z,102033.41
2022-10-11T04:54:01.670Z,102037.06
2022-10-11T04:56:28.115Z,102033.63
2022-10-11T04:58:54.557Z,102033.63
2022-10-11T05:01:21.168Z,102042.69
2022-10-11T05:03:47.613Z,102041.94
2022-10-11T05:06:15.519Z,102042.88
2022-10-11T05:08:41.989Z,102043.03
2022-10-11T05:11:11.686Z,102047.66
2022-10-11T05:13:39.066Z,102052.06
2022-10-11T05:16:10.707Z,102055.75
2022-10-11T05:18:38.570Z,102061.38
2022-10-11T05:21:07.475Z,102054.25
2022-10-11T05:23:36.590Z,102058.78
2022-10-11T05:26:04.244Z,102064.28
2022-10-11T05:28:31.165Z,102057.16
2022-10-11T05:30:57.732Z,102067.97
2022-10-11T05:33:24.413Z,102071.72
2022-10-11T05:35:50.944Z,102074.41
2022-10-11T05:38:17.538Z,102077.00
2022-10-11T05:40:45.380Z,102098.59
2022-10-11T05:43:11.925Z,102098.59
2022-10-11T05:45:39.687Z,102091.47
2022-10-11T05:48:06.529Z,102101.28
2022-10-11T05:50:33.013Z,102102.38
2022-10-11T05:52:59.819Z,102108.66
2022-10-11T05:55:26.577Z,102105.09
2022-10-11T05:57:55.149Z,102109.47
2022-10-11T06:00:22.482Z,102113.03
2022-10-11T06:02:49.257Z,102122.78
2022-10-11T06:05:16.190Z,102116.28
2022-10-11T06:07:42.942Z,102118.88
2022-10-11T06:10:09.854Z,102118.66
2022-10-11T06:12:36.411Z,102121.13
2022-10-11T06:15:05.138Z,102127.19
2022-10-11T06:17:31.622Z,102132.38
2022-10-11T06:19:58.105Z,102127.72
2022-10-11T06:22:24.534Z,102131.19
2022-10-11T06:24:51.011Z,102139.81
2022-10-11T06:27:17.460Z,102127.06
2022-10-11T06:29:43.901Z,102131.25
2022-10-11T06:32:11.742Z,102147.25
2022-10-11T06:34:38.193Z,102148.84
2022-10-11T06:37:04.655Z,102147.66
2022-10-11T06:39:31.112Z,102155.56
2022-10-11T06:41:57.719Z,102153.50
2022-10-11T06:44:25.675Z,102161.28
2022-10-11T06:46:52.295Z,102162.88
2022-10-11T06:49:23.236Z,102169.78
2022-10-11T06:51:50.236Z,102174.84
2022-10-11T06:54:16.666Z,102183.38
2022-10-11T06:56:58.160Z,102181.19
2022-10-11T06:59:24.558Z,102185.28
2022-10-11T07:01:50.982Z,102193.06
2022-10-11T07:04:17.398Z,102190.88
2022-10-11T07:06:45.160Z,102181.56
2022-10-11T07:09:11.657Z,102194.84
2022-10-11T07:11:38.092Z,102193.53
2022-10-11T07:14:06.591Z,102201.22
2022-10-11T07:16:34.202Z,102199.88
2022-10-11T07:19:01.791Z,102200.41
2022-10-11T07:21:29.236Z,102209.91
2022-10-11T07:23:57.123Z,102197.00
2022-10-11T07:26:23.683Z,102203.91
2022-10-11T07:28:50.200Z,102210.81
2022-10-11T07:31:19.256Z,102207.78
2022-10-11T07:33:46.368Z,102211.00
2022-10-11T07:36:13.000Z,102218.56
2022-10-11T07:38:40.294Z,102228.06
2022-10-11T07:41:08.565Z,102221.34
2022-10-11T07:43:36.097Z,102227.13
2022-10-11T07:46:03.642Z,102237.50
2022-10-11T07:48:31.005Z,102232.59
2022-10-11T07:51:02.729Z,102238.38
2022-10-11T07:53:29.138Z,102241.59
2022-10-11T07:55:59.045Z,102236.81
2022-10-11T07:58:26.893Z,102247.28
2022-10-11T08:00:54.079Z,102244.13
2022-10-11T08:03:20.633Z,102235.88
2022-10-11T08:05:47.146Z,102240.91
2022-10-11T08:08:13.639Z,102246.13
2022-10-11T08:10:40.786Z,102243.69
2022-10-11T08:13:07.254Z,102237.75
2022-10-11T08:19:02.922Z,102235.09
2022-10-11T08:21:30.139Z,102244.81
2022-10-11T08:23:56.692Z,102243.72
2022-10-11T08:26:23.306Z,102240.66
2022-10-11T08:28:49.900Z,102245.69
2022-10-11T08:31:16.681Z,102241.88
2022-10-11T08:33:43.750Z,102246.94
2022-10-11T08:36:12.572Z,102248.53
2022-10-11T08:38:39.439Z,102247.28
2022-10-11T08:41:23.138Z,102250.38
2022-10-11T08:44:00.533Z,102252.47
2022-10-11T08:46:30.137Z,102252.09
2022-10-11T08:48:57.237Z,102252.72
2022-10-11T08:51:29.247Z,102253.22
2022-10-11T08:54:06.419Z,102242.00
2022-10-11T08:56:36.557Z,102252.38
2022-10-11T08:59:10.300Z,102250.16
2022-10-11T09:01:43.090Z,102254.19
2022-10-11T09:04:13.581Z,102260.13
2022-10-11T09:06:50.329Z,102268.63
2022-10-11T09:09:46.566Z,102264.53
2022-10-11T09:12:18.615Z,102267.59
2022-10-11T09:15:09.957Z,102265.13
2022-10-11T09:17:54.258Z,102266.31
2022-10-11T09:20:49.981Z,102265.69
2022-10-11T09:23:32.258Z,102257.78
2022-10-11T09:26:05.538Z,102268.72
2022-10-11T09:28:38.882Z,102267.09
2022-10-11T09:31:10.356Z,102269.16
2022-10-11T09:33:42.351Z,102264.03
2022-10-11T09:36:18.347Z,102267.81
2022-10-11T09:38:52.045Z,102270.75
2022-10-11T09:41:24.919Z,102270.97
2022-10-11T09:43:52.391Z,102266.84
2022-10-11T09:46:22.834Z,102265.16
2022-10-11T09:48:51.125Z,102266.41
2022-10-11T09:51:21.402Z,102272.75
2022-10-11T09:53:57.296Z,102263.66
2022-10-11T09:56:26.548Z,102272.59
2022-10-11T09:59:29.635Z,102269.03
2022-10-11T10:02:17.599Z,102276.09
2022-10-11T10:04:54.873Z,102277.00
2022-10-11T10:07:22.074Z,102274.47
2022-10-11T10:09:50.719Z,102270.22
2022-10-11T10:12:21.452Z,102262.47
2022-10-11T10:14:55.813Z,102270.81
2022-10-11T10:17:22.370Z,102269.97
2022-10-11T10:19:51.463Z,102266.81
2022-10-11T10:22:20.315Z,102274.28
2022-10-11T10:24:48.656Z,102281.47
2022-10-11T10:27:19.939Z,102285.81
2022-10-11T10:30:02.181Z,102275.63
2022-10-11T10:32:35.818Z,102275.47
2022-10-11T10:35:08.818Z,102275.19
2022-10-11T10:37:43.153Z,102278.75
2022-10-11T10:40:17.229Z,102271.72
2022-10-11T10:42:45.090Z,102278.75
2022-10-11T10:45:20.919Z,102275.44
2022-10-11T10:48:10.876Z,102284.03
2022-10-11T10:50:49.160Z,102283.47
2022-10-11T10:53:23.163Z,102282.56
2022-10-11T10:55:54.663Z,102275.94
2022-10-11T10:58:37.439Z,102279.09
2022-10-11T11:01:13.194Z,102282.56
2022-10-11T11:03:46.298Z,102270.28
2022-10-11T11:06:22.923Z,102281.63
2022-10-11T11:09:01.180Z,102283.81
2022-10-11T11:11:49.356Z,102278.94
2022-10-11T11:14:28.420Z,102269.47
2022-10-11T11:17:05.729Z,102268.34
2022-10-11T11:19:44.094Z,102267.16
2022-10-11T11:22:22.311Z,102265.16
2022-10-11T11:25:00.049Z,102267.03
2022-10-11T11:27:41.325Z,102272.06
2022-10-11T11:30:13.537Z,102269.66
2022-10-11T11:32:53.628Z,102273.53
2022-10-11T11:35:27.048Z,102270.38
2022-10-11T11:38:01.289Z,102279.19
2022-10-11T11:40:36.738Z,102270.44
2022-10-11T11:43:07.469Z,102267.00
2022-10-11T11:45:46.454Z,102270.91
2022-10-11T11:48:18.186Z,102270.63
2022-10-11T11:50:51.033Z,102269.94
2022-10-11T11:53:22.971Z,102270.31
2022-10-11T11:55:55.187Z,102266.44
2022-10-11T11:58:33.804Z,102263.44
2022-10-11T12:01:07.119Z,102267.75
2022-10-11T12:03:41.639Z,102263.47
2022-10-11T12:06:30.659Z,102252.09
2022-10-11T12:09:02.638Z,102259.81
2022-10-11T12:11:39.394Z,102258.78
2022-10-11T12:14:17.479Z,102262.31
2022-10-11T12:17:10.949Z,102255.38
2022-10-11T12:19:39.797Z,102258.50
2022-10-11T12:22:36.313Z,102251.13
2022-10-11T12:25:32.778Z,102249.03
2022-10-11T12:28:00.839Z,102241.66
2022-10-11T12:31:03.127Z,102246.41
2022-10-11T12:33:51.298Z,102238.97
2022-10-11T12:36:39.589Z,102239.25
2022-10-11T12:39:49.016Z,102236.84
2022-10-11T12:42:25.198Z,102244.25
2022-10-11T12:45:29.158Z,102240.53
2022-10-11T12:48:06.249Z,102247.59
2022-10-11T12:50:44.942Z,102246.28
2022-10-11T12:53:28.522Z,102238.09
2022-10-11T12:56:01.317Z,102246.00
2022-10-11T12:58:32.843Z,102250.41
2022-10-11T13:01:18.540Z,102248.44
2022-10-11T13:04:02.945Z,102241.88
2022-10-11T13:06:33.464Z,102249.66
2022-10-11T13:09:05.202Z,102247.41
2022-10-11T13:11:35.181Z,102247.72
2022-10-11T13:14:08.643Z,102247.16
2022-10-11T13:16:59.048Z,102253.22
2022-10-11T13:19:26.854Z,102248.22
2022-10-11T13:21:56.690Z,102252.84
2022-10-11T13:24:25.288Z,102248.69
2022-10-11T13:26:55.602Z,102248.41
2022-10-11T13:29:30.628Z,102242.31
2022-10-11T13:31:57.600Z,102244.28
2022-10-11T13:34:24.578Z,102244.19
2022-10-11T13:36:57.077Z,102242.28
2022-10-11T13:39:31.240Z,102240.31
2022-10-11T13:41:59.272Z,102243.13
2022-10-11T13:44:26.518Z,102248.84
2022-10-11T13:46:53.907Z,102241.03
2022-10-11T13:49:29.946Z,102235.44
2022-10-11T13:52:01.537Z,102239.56
2022-10-11T13:55:00.786Z,102237.38
2022-10-11T13:57:37.918Z,102236.22
2022-10-11T14:00:22.945Z,102242.69
2022-10-11T14:02:54.404Z,102237.44
2022-10-11T14:05:24.118Z,102237.91
2022-10-11T14:07:52.067Z,102231.63
2022-10-11T14:10:19.993Z,102232.63
2022-10-11T14:12:59.064Z,102233.06
2022-10-11T14:15:27.978Z,102238.00
2022-10-11T14:17:54.479Z,102231.41
2022-10-11T14:20:24.028Z,102237.19
2022-10-11T14:22:52.899Z,102242.53
2022-10-11T14:25:19.856Z,102239.78
2022-10-11T14:27:47.056Z,102228.69
2022-10-11T14:30:30.944Z,102232.41
2022-10-11T14:33:00.858Z,102240.63
2022-10-11T14:35:30.220Z,102237.34
2022-10-11T14:37:58.263Z,102232.19
2022-10-11T14:40:26.897Z,102236.81
2022-10-11T14:42:53.917Z,102236.13
2022-10-11T14:45:20.891Z,102235.41
2022-10-11T14:47:48.034Z,102239.13
2022-10-11T14:50:37.828Z,102244.06
2022-10-11T14:53:07.250Z,102236.78
2022-10-11T14:55:35.337Z,102238.25
2022-10-11T14:58:02.281Z,102235.28
2022-10-11T15:00:30.359Z,102244.25
2022-10-11T15:02:57.712Z,102238.41
2022-10-11T15:05:31.143Z,102243.03
2022-10-11T15:08:00.101Z,102242.94
2022-10-11T15:10:30.091Z,102237.06
2022-10-11T15:12:57.260Z,102239.41
2022-10-11T15:15:25.754Z,102246.03
2022-10-11T15:17:55.200Z,102243.75
2022-10-11T15:20:25.833Z,102247.78
2022-10-11T15:22:52.912Z,102243.78
2022-10-11T15:25:19.592Z,102246.91
2022-10-11T15:27:47.841Z,102243.78
2022-10-11T15:30:18.176Z,102238.94
2022-10-11T15:32:45.708Z,102243.09
2022-10-11T15:35:13.077Z,102246.28
2022-10-11T15:37:40.216Z,102243.00
2022-10-11T15:40:16.237Z,102251.63
2022-10-11T15:42:43.028Z,102246.72
2022-10-11T15:45:11.928Z,102243.63
2022-10-11T15:47:38.417Z,102247.78
2022-10-11T15:50:14.175Z,102248.34
2022-10-11T15:52:40.880Z,102247.06
2022-10-11T15:55:07.804Z,102250.38
2022-10-11T15:57:34.300Z,102257.44
2022-10-11T16:00:00.762Z,102254.53
2022-10-11T16:02:28.725Z,102263.44
2022-10-11T16:04:55.108Z,102259.72
2022-10-11T16:07:21.531Z,102259.44
2022-10-11T16:09:47.949Z,102268.41
2022-10-11T16:12:14.385Z,102266.53
2022-10-11T16:14:43.692Z,102275.41
2022-10-11T16:17:13.416Z,102269.09
2022-10-11T16:19:41.248Z,102262.63
2022-10-11T16:22:07.699Z,102272.47
2022-10-11T16:24:34.185Z,102270.72
2022-10-11T16:27:00.573Z,102276.09
2022-10-11T16:29:26.992Z,102272.34
2022-10-11T16:31:53.514Z,102275.75
2022-10-11T16:34:19.951Z,102275.72
2022-10-11T16:36:47.760Z,102275.69
2022-10-11T16:39:16.009Z,102278.19
2022-10-11T16:41:42.729Z,102283.44
2022-10-11T16:44:12.907Z,102279.78
2022-10-11T16:46:39.506Z,102286.00
2022-10-11T16:49:06.025Z,102299.38
2022-10-11T16:51:32.511Z,102289.31
2022-10-11T16:54:00.873Z,102287.50
2022-10-11T16:56:27.597Z,102291.97
2022-10-11T16:58:54.766Z,102293.59
2022-10-11T17:01:21.845Z,102296.09
2022-10-11T17:03:48.808Z,102302.31
2022-10-11T17:06:15.293Z,102291.97
2022-10-11T17:08:41.725Z,102299.75
2022-10-11T17:11:09.543Z,102298.53
2022-10-11T17:13:35.968Z,102299.19
2022-10-11T17:16:02.900Z,102303.50
2022-10-11T17:18:32.038Z,102299.56
2022-10-11T17:21:02.276Z,102307.34
2022-10-11T17:23:28.783Z,102313.38
2022-10-11T17:25:55.331Z,102303.91
2022-10-11T17:28:23.173Z,102305.31
2022-10-11T17:30:54.022Z,102312.22
2022-10-11T17:33:20.518Z,102311.00
2022-10-11T17:35:47.066Z,102309.75
2022-10-11T17:38:13.488Z,102315.53
2022-10-11T17:40:39.974Z,102313.31
2022-10-11T17:43:06.420Z,102311.94
2022-10-11T17:45:34.220Z,102320.53
2022-10-11T17:48:00.712Z,102319.22
2022-10-11T17:50:27.132Z,102317.84
2022-10-11T17:52:53.687Z,102325.44
2022-10-11T17:55:20.125Z,102324.94
2022-10-11T17:57:46.622Z,102321.72
2022-10-11T18:00:14.457Z,102314.94
2022-10-11T18:02:42.253Z,102318.97
2022-10-11T18:05:09.026Z,102308.59
2022-10-11T18:07:35.456Z,102321.66
2022-10-11T18:10:01.899Z,102318.44
2022-10-11T18:12:28.406Z,102326.75
2022-10-11T18:14:54.858Z,102326.28
2022-10-11T18:17:21.315Z,102327.47
2022-10-11T18:19:49.107Z,102322.53
2022-10-11T18:22:15.564Z,102321.03
2022-10-11T18:24:42.012Z,102321.47
2022-10-11T18:27:08.517Z,102333.50
2022-10-11T18:29:34.937Z,102332.09
2022-10-11T18:32:01.382Z,102332.44
2022-10-11T18:34:28.022Z,102329.34
2022-10-11T18:36:55.876Z,102321.56
2022-10-11T18:39:22.289Z,102328.25
2022-10-11T18:41:48.755Z,102331.28
2022-10-11T18:44:15.900Z,102328.81
2022-10-11T18:46:42.729Z,102330.88
2022-10-11T18:49:09.224Z,102326.69
2022-10-11T18:51:37.666Z,102330.59
2022-10-11T18:54:07.523Z,102328.22
2022-10-11T18:56:35.188Z,102324.00
2022-10-11T18:59:01.625Z,102325.19
2022-10-11T19:01:29.558Z,102320.13
2022-10-11T19:03:58.703Z,102323.03
2022-10-11T19:06:27.026Z,102323.34
2022-10-11T19:08:55.596Z,102320.00
2022-10-11T19:11:23.377Z,102314.06
2022-10-11T19:13:55.443Z,102312.56
2022-10-11T19:16:21.981Z,102313.00
2022-10-11T19:18:48.908Z,102323.19
2022-10-11T19:21:15.849Z,102321.63
2022-10-11T19:23:44.084Z,102323.69
2022-10-11T19:26:13.827Z,102314.22
2022-10-11T19:28:41.693Z,102314.53
2022-10-11T19:31:10.790Z,102322.94
2022-10-11T19:33:37.475Z,102322.28
2022-10-11T19:36:05.720Z,102318.84
2022-10-11T19:38:34.617Z,102320.88
2022-10-11T19:41:01.985Z,102322.06
2022-10-11T19:43:28.462Z,102320.56
2022-10-11T19:46:00.661Z,102323.44
2022-10-11T19:48:27.320Z,102322.81
2022-10-11T19:51:12.122Z,102326.59
2022-10-11T19:53:39.254Z,102324.19
2022-10-11T19:56:08.299Z,102326.25
2022-10-11T19:58:35.127Z,102322.00
2022-10-11T20:01:04.677Z,102324.06
2022-10-11T20:03:32.478Z,102328.69
2022-10-11T20:05:59.793Z,102322.66
2022-10-11T20:08:26.428Z,102325.53
2022-10-11T20:10:53.384Z,102322.09
2022-10-11T20:13:19.798Z,102327.69
2022-10-11T20:15:46.272Z,102323.47
2022-10-11T20:18:14.037Z,102323.66
2022-10-11T20:20:51.371Z,102323.88
2022-10-11T20:23:18.414Z,102324.28
2022-10-11T20:25:45.613Z,102330.75
2022-10-11T20:28:12.128Z,102327.41
2022-10-11T20:30:41.657Z,102332.03
2022-10-11T20:33:08.085Z,102331.47
2022-10-11T20:35:35.853Z,102340.63
2022-10-11T20:38:02.266Z,102332.84
2022-10-11T20:40:28.698Z,102339.25
2022-10-11T20:42:55.143Z,102342.16
2022-10-11T20:45:21.578Z,102340.53
2022-10-11T20:47:48.030Z,102342.44
2022-10-11T20:50:14.543Z,102339.00
2022-10-11T20:52:42.295Z,102347.28
2022-10-11T20:55:09.223Z,102344.78
2022-10-11T20:57:35.956Z,102350.38
2022-10-11T21:00:02.783Z,102347.13
2022-10-11T21:02:29.209Z,102342.75
2022-10-11T21:04:55.682Z,102342.97
2022-10-11T21:07:22.171Z,102347.69
2022-10-11T21:09:49.979Z,102346.06
2022-10-11T21:12:16.444Z,102341.72
2022-10-11T21:14:42.876Z,102344.63
2022-10-11T21:17:09.378Z,102347.50
2022-10-11T21:19:35.789Z,102346.75
2022-10-11T21:22:02.268Z,102349.66
2022-10-11T21:24:28.651Z,102359.63
2022-10-11T21:27:00.462Z,102354.53
2022-10-11T21:29:27.359Z,102363.69
2022-10-11T21:31:53.814Z,102355.78
2022-10-11T21:34:20.278Z,102348.78
2022-10-11T21:36:46.735Z,102361.44
2022-10-11T21:39:13.143Z,102354.44
2022-10-11T21:41:39.630Z,102355.59
2022-10-11T21:44:07.696Z,102355.59
2022-10-11T21:47:04.766Z,102355.78
2022-10-11T21:49:20.740Z,102350.56
2022-10-11T21:51:47.169Z,102356.16
2022-10-11T21:54:13.763Z,102354.53
2022-10-11T21:56:40.293Z,102360.97
2022-10-11T21:59:11.257Z,102356.63
2022-10-11T22:01:39.386Z,102345.28
2022-10-11T22:04:06.477Z,102353.44
2022-10-11T22:06:32.924Z,102349.13
2022-10-11T22:08:59.416Z,102355.66
2022-10-11T22:11:25.893Z,102358.44
2022-10-11T22:13:52.585Z,102353.25
2022-10-11T22:16:20.374Z,102352.47
2022-10-11T22:18:47.012Z,102352.66
2022-10-11T22:21:16.059Z,102354.59
2022-10-11T22:23:44.115Z,102353.88
2022-10-11T22:26:13.442Z,102360.31
2022-10-11T22:28:40.883Z,102357.72
2022-10-11T22:31:08.956Z,102355.22
2022-10-11T22:33:36.872Z,102358.97
2022-10-11T22:36:05.945Z,102356.44
2022-10-11T22:38:32.374Z,102355.69
2022-10-11T22:40:58.885Z,102357.59
2022-10-11T22:43:25.519Z,102357.78
2022-10-11T22:45:51.939Z,102362.38
2022-10-11T22:48:18.397Z,102355.38
2022-10-11T22:50:46.691Z,102363.50
2022-10-11T22:53:14.335Z,102369.94
2022-10-11T22:55:40.838Z,102370.16
2022-10-11T22:58:07.329Z,102363.97
2022-10-11T23:00:34.251Z,102365.97
2022-10-11T23:03:00.790Z,102352.59
2022-10-11T23:05:27.249Z,102359.06
2022-10-11T23:07:54.973Z,102358.25
2022-10-11T23:10:21.398Z,102359.22
2022-10-11T23:12:47.849Z,102361.13
2022-10-11T23:15:14.390Z,102359.41
2022-10-11T23:17:40.896Z,102359.47
2022-10-11T23:20:08.081Z,102358.72
2022-10-11T23:22:34.587Z,102366.84
2022-10-11T23:25:02.393Z,102361.66
2022-10-11T23:27:28.900Z,102368.94
2022-10-11T23:29:55.384Z,102373.56
2022-10-11T23:32:22.036Z,102367.31
2022-10-11T23:34:48.454Z,102366.63
2022-10-11T23:37:14.906Z,102363.94
2022-10-11T23:39:41.340Z,102364.97
2022-10-11T23:42:09.139Z,102362.38
2022-10-11T23:44:35.617Z,102357.16
2022-10-11T23:47:02.164Z,102362.72
2022-10-11T23:49:28.561Z,102371.72
2022-10-11T23:51:55.017Z,102368.28
2022-10-11T23:54:21.430Z,102364.91
2022-10-11T23:56:47.874Z,102364.97
2022-10-11T23:59:15.646Z,102374.09
